San Francisco, California
Traffic Map
Current Weather Conditions
San Francisco, California
Clear
Clear
15°
Feels Like: 15°
Wind Chill: 15° Ceiling: Unl
Heat Index: 15° Visibility: 10mi
Dew Point: 12° Wind: 8mph
Humidity: 81% Direction: 30° (NNE)
Pressure: 30.26in Gusts: 0mph
Raw Report DataKSFO 101956Z 03007KT 10SM CLR 15/12 A3026 RMK AO2 SLP247 T01500117 $
Traffic Incident Summary
Active as of:
Severity:
Category:
InformationThere was an issue retrieving the traffic information for this location. Please try a different location or try again shortly.
Advertisements
Track Severe Weather on mobile